This is the latest recevied weather packets stored in our database for station/object EA1FWM-12. If no packets are shown the sender has not sent any weather packets the latest 10 day(s).
| Time | Temp. | Humidity | Pressure | Rain* | Wind** | Luminosity | Snow |
|---|---|---|---|---|---|---|---|
| 1787390267 | 26.11° C | 57% | 1018.3 hPa | - | - | - | - |
| 1787389356 | 25° C | 60% | 1018.2 hPa | - | - | - | - |
| 1787388457 | 24.44° C | 62% | 1018.1 hPa | - | - | - | - |
| 1787387556 | 23.89° C | 64% | 1018.1 hPa | - | - | - | - |
| 1787386664 | 23.33° C | 68% | 1018.1 hPa | - | - | - | - |
| 1787385820 | 22.22° C | 71% | 1018.1 hPa | - | - | - | - |
| 1787385757 | 22.22° C | 71% | 1018.1 hPa | - | - | - | - |
| 1787384857 | 20.56° C | 75% | 1018.1 hPa | - | - | - | - |
| 1787383957 | 18.89° C | 78% | 1018.2 hPa | - | - | - | - |
| 1787383065 | 17.22° C | 81% | 1018.3 hPa | - | - | - | - |
| 1787382157 | 15° C | 84% | 1018.3 hPa | - | - | - | - |
| 1787381258 | 12.78° C | 85% | 1018.2 hPa | - | - | - | - |
| 1787380358 | 11.11° C | 86% | 1018.2 hPa | - | - | - | - |
| 1787379459 | 9.44° C | 86% | 1018.2 hPa | - | - | - | - |
| 1787378559 | 8.89° C | 85% | 1018.4 hPa | - | - | - | - |
| 1787377659 | 8.89° C | 85% | 1018.2 hPa | - | - | - | - |
| 1787376759 | 8.89° C | 84% | 1018.3 hPa | - | - | - | - |
| 1787374960 | 8.89° C | 84% | 1018.3 hPa | - | - | - | - |
| 1787374060 | 8.89° C | 84% | 1018.3 hPa | - | - | - | - |
| 1787372263 | 8.89° C | 83% | 1018.3 hPa | - | - | - | - |
| 1787371363 | 8.89° C | 83% | 1018.4 hPa | - | - | - | - |
| 1787369565 | 8.89° C | 83% | 1018.3 hPa | - | - | - | - |
| 1787368665 | 8.89° C | 83% | 1018.4 hPa | - | - | - | - |
| 1787367773 | 8.89° C | 82% | 1018.5 hPa | - | - | - | - |
| 1787365074 | 9.44° C | 82% | 1018.6 hPa | - | - | - | - |
* Rain since midnight (hover to see other rain measurements)
** Current wind speed in m/s (hover to see current wind gust speed)